Airport View

Enter AWOS ICAO identifier for current METAR.

ex. KFNL

22 Sep 2019 00:07

Frequency: 108.8

Phone: 218-463-1803

Other Area AWOS: KRRT - KFGN - KBDE - KHCO

TAF AMD KTVF 212232Z 2123/2218 22014KT P6SM VCSH BKN035 FM220100 27016G25KT P6SM SCT050 FM221700 28010KT P6SM SCT080